Impacts TAF Board INFO
FOR SITUATIONAL AWARENESS. NOT TO BE USED FOR FLIGHT PLANNING PURPOSES.
IDs:

KORD - Chicago/O'Hare Intl, IL, US

Issued at 0535 UTC 26 Apr 2018
Updated at 0749 UTC 26 Apr 2018
Potential Impact None Slight Moderate High
Time0651Z 26/08Z 26/09Z 26/10Z 26/11Z 26/12Z 26/13Z 26/14Z 26/15Z 26/16Z 26/17Z 26/18Z 26/19Z 26/20Z>>
Type OBS PRVL PRVL PRVL PRVL PRVL PRVL PRVL PRVL PRVL PRVL PRVL PRVL PRVL
VIS 10 >6 >6 >6 >6 >6 >6 >6 >6 >6 >6 >6 >6 >6
CIG -- -- -- -- -- -- -- -- -- -- -- 250 250 250
Cover CLR SKC SKC SKC SKC SKC FEW FEW FEW FEW FEW BKN BKN BKN
FltCat VFR VFR VFR VFR VFR VFR VFR VFR VFR VFR VFR VFR VFR VFR
WX -- -- -- -- -- -- -- -- -- -- -- -- -- --
WDir VRB 290 290 290 290 290 220 220 220 220 220 230 230 230
WSpd 0 4 4 4 4 4 5 5 5 5 5 9 9 9
WGst -- -- -- -- -- -- -- -- -- -- -- -- -- --

Raw TAF
KORD 260535Z 2606/2712 29004KT P6SM SKC
  FM261300 22005KT P6SM FEW250
  FM261800 23009KT P6SM FEW050 BKN250
  FM270600 34015G22KT P6SM BKN020 OVC050


Raw METAR
KORD 260651Z 00000KT 10SM CLR 03/M02 A2997 RMK AO2 SLP150 T00331017
KORD 260551Z 00000KT 10SM CLR 04/M02 A2998 RMK AO2 SLP156 T00441017 10072 20033 401170033 56015
KORD 260451Z 35003KT 10SM CLR 04/M02 A2999 RMK AO2 SLP160 T00391017

METAR Board
Radar Display
Forecast Discussion

FOR SITUATIONAL AWARENESS. NOT TO BE USED FOR FLIGHT PLANNING PURPOSES.